Home > Products > Valid Products > MTR

000
SAUS41 KLWX 211200
MTRRYT
METAR KRYT 211153Z AUTO 00000KT 10SM OVC060 M01/M06 A3028 RMK AO2
SLP270 T10111056 11011 21022 53005 $





000
SAUS41 KLWX 211159 COR
MTRDMH
METAR KDMH 211154Z AUTO 01/M06 A3034 RMK AO1 SLP272 T00111056 10011
20011 53009





000
SAUS41 KLWX 211159
MTRNAK
METAR KNAK 211154Z AUTO 33003KT 7SM OVC070 01/M03 A3034 RMK AO2
SLP274 T00111033 10017 20006 53012





000
SAUS41 KLWX 211100
MTRRYT
METAR KRYT 211053Z AUTO 00000KT 9SM OVC060 M02/M06 A3026 RMK AO2
SLP266 T10171056 $





000
SAUS41 KLWX 211100
MTRRYT
METAR KRYT 211053Z AUTO 00000KT 9SM OVC060 M02/M06 A3026 RMK AO2
SLP266 T10171056 $





000
SAUS41 KLWX 211059
MTRNAK
METAR KNAK 211054Z AUTO 34004KT 7SM OVC070 01/M02 A3032 RMK AO2
SLP270 T00111022





000
SAUS41 KLWX 211059 COR
MTRDMH
METAR KDMH 211054Z AUTO 01/M06 A3033 RMK AO1 SLP269 T00111056





000
SAUS41 KLWX 211059
MTRNAK
METAR KNAK 211054Z AUTO 34004KT 7SM OVC070 01/M02 A3032 RMK AO2
SLP270 T00111022





000
SAUS41 KLWX 211059 COR
MTRDMH
METAR KDMH 211054Z AUTO 01/M06 A3033 RMK AO1 SLP269 T00111056





000
SAUS41 KLWX 211000
MTRRYT
METAR KRYT 210953Z AUTO 00000KT 10SM OVC060 M01/M06 A3025 RMK AO2
SLP261 T10111061 $





000
SAUS41 KLWX 211000
MTRRYT
METAR KRYT 210953Z AUTO 00000KT 10SM OVC060 M01/M06 A3025 RMK AO2
SLP261 T10111061 $





000
SAUS41 KLWX 210959
MTRNAK
METAR KNAK 210954Z AUTO 00000KT 7SM OVC075 01/M03 A3030 RMK AO2
SLP263 T00111028





000
SAUS41 KLWX 210959 COR
MTRDMH
METAR KDMH 210954Z AUTO 01/M05 A3030 RMK AO1 SLP261 T00111050





000
SAUS41 KLWX 210959 COR
MTRDMH
METAR KDMH 210954Z AUTO 01/M05 A3030 RMK AO1 SLP261 T00111050





000
SAUS41 KLWX 210959
MTRNAK
METAR KNAK 210954Z AUTO 00000KT 7SM OVC075 01/M03 A3030 RMK AO2
SLP263 T00111028





000
SAUS41 KLWX 210900
MTRRYT
METAR KRYT 210853Z AUTO 00000KT 10SM BKN035 OVC065 M02/M06 A3026 RMK
AO2 SLP264 T10171056 51006 $





000
SAUS41 KLWX 210859
MTRNAK
METAR KNAK 210854Z AUTO 34003KT 7SM OVC080 02/M03 A3030 RMK AO2
SLP262 T00171028 50000





000
SAUS41 KLWX 210859 COR
MTRDMH
METAR KDMH 210854Z AUTO 01/M05 A3031 RMK AO1 SLP263 T00111050 50006





000
SAUS41 KLWX 210800
MTRRYT
METAR KRYT 210753Z AUTO 00000KT 8SM OVC070 M02/M05 A3026 RMK AO2
SLP262 T10171050 $





000
SAUS41 KLWX 210759
MTRNAK
METAR KNAK 210754Z AUTO 00000KT 7SM OVC080 02/M03 A3031 RMK AO2
SLP267 T00171028





000
SAUS41 KLWX 210759 COR
MTRDMH
METAR KDMH 210754Z AUTO 01/M04 A3032 RMK AO1 SLP268 T00111044





000
SAUS41 KLWX 210700
MTRRYT
METAR KRYT 210653Z AUTO 00000KT 8SM OVC070 M02/M06 A3025 RMK AO2
SLP262 T10171056 $





000
SAUS41 KLWX 210700 COR
MTRDMH
METAR KDMH 210654Z AUTO 01/M05 A3030 RMK AO1 SLP259 T00111050





000
SAUS41 KLWX 210659
MTRNAK
METAR KNAK 210654Z AUTO 00000KT 9SM OVC080 01/M04 A3030 RMK AO2
SLP263 T00111039





000
SAUS41 KLWX 210600
MTRRYT
METAR KRYT 210553Z AUTO 00000KT 9SM BKN075 OVC100 M02/M05 A3024 RMK
AO2 SLP258 T10221050 11006 21022 58001 $





000
SAUS41 KLWX 210600
MTRRYT
METAR KRYT 210553Z AUTO 00000KT 9SM BKN075 OVC100 M02/M05 A3024 RMK
AO2 SLP258 T10221050 11006 21022 58001 $





000
SAUS41 KLWX 210559
MTRNAK
METAR KNAK 210554Z AUTO 00000KT 6SM HZ OVC085 01/M02 A3030 RMK AO2
SLP262 T00061022 10022 20000 58001





000
SAUS41 KLWX 210559 COR
MTRDMH
METAR KDMH 210554Z AUTO 01/M05 A3029 RMK AO1 SLP257 T00111050 10022
20011 58004





000
SAUS41 KLWX 210559
MTRNAK
METAR KNAK 210554Z AUTO 00000KT 6SM HZ OVC085 01/M02 A3030 RMK AO2
SLP262 T00061022 10022 20000 58001





000
SAUS41 KLWX 210559 COR
MTRDMH
METAR KDMH 210554Z AUTO 01/M05 A3029 RMK AO1 SLP257 T00111050 10022
20011 58004





000
SAUS41 KLWX 210500
MTRRYT
METAR KRYT 210453Z AUTO 00000KT 10SM OVC100 M02/M06 A3025 RMK AO2
SLP261 T10171061 400111050 $





000
SAUS41 KLWX 210500
MTRRYT
METAR KRYT 210453Z AUTO 00000KT 10SM OVC100 M02/M06 A3025 RMK AO2
SLP261 T10171061 400111050 $





000
SAUS41 KLWX 210459
MTRNAK
METAR KNAK 210454Z AUTO 00000KT 7SM FEW120 01/M03 A3030 RMK AO2
SLP261 T00061028 400391017





000
SAUS41 KLWX 210459 COR
MTRDMH
METAR KDMH 210454Z AUTO 02/M06 A3029 RMK AO1 SLP257 T00171056
400391011





000
SAUS41 KLWX 210459
MTRNAK
METAR KNAK 210454Z AUTO 00000KT 7SM FEW120 01/M03 A3030 RMK AO2
SLP261 T00061028 400391017





000
SAUS41 KLWX 210459 COR
MTRDMH
METAR KDMH 210454Z AUTO 02/M06 A3029 RMK AO1 SLP257 T00171056
400391011





000
SAUS41 KLWX 210400
MTRRYT
METAR KRYT 210353Z AUTO 00000KT 10SM BKN080 OVC100 M02/M06 A3024 RMK
AO2 SLP260 T10171056 $





000
SAUS41 KLWX 210400
MTRRYT
METAR KRYT 210353Z AUTO 00000KT 10SM BKN080 OVC100 M02/M06 A3024 RMK
AO2 SLP260 T10171056 $





000
SAUS41 KLWX 210359
MTRNAK
METAR KNAK 210354Z AUTO 00000KT 10SM OVC090 02/M04 A3031 RMK AO2
SLP265 T00221039





000
SAUS41 KLWX 210359
MTRNAK
METAR KNAK 210354Z AUTO 00000KT 10SM OVC090 02/M04 A3031 RMK AO2
SLP265 T00221039





000
SAUS41 KLWX 210358
MTRDMH
METAR KDMH 210354Z AUTO 02/M05 A3031 RMK AO1 SLP263 T00171050





000
SAUS41 KLWX 210358
MTRDMH
METAR KDMH 210354Z AUTO 02/M05 A3031 RMK AO1 SLP263 T00171050





000
SAUS41 KLWX 210300
MTRRYT
METAR KRYT 210253Z AUTO 00000KT 9SM OVC110 M02/M06 A3024 RMK AO2
SLP261 T10171056 53001 $





000
SAUS41 KLWX 210259
MTRNAK
METAR KNAK 210254Z AUTO 00000KT 9SM BKN090 OVC120 02/M04 A3030 RMK
AO2 SLP263 T00221039 56002





000
SAUS41 KLWX 210259 COR
MTRDMH
METAR KDMH 210254Z AUTO 02/M05 A3030 RMK AO1 SLP261 T00221050 55001





000
SAUS41 KLWX 210200
MTRRYT
METAR KRYT 210153Z AUTO 00000KT 10SM OVC110 M02/M06 A3025 RMK AO2
SLP262 T10171061 $





000
SAUS41 KLWX 210159 COR
MTRDMH
METAR KDMH 210154Z AUTO 02/M05 A3030 RMK AO1 SLP259 T00171050





000
SAUS41 KLWX 210159
MTRNAK
METAR KNAK 210154Z AUTO 00000KT 10SM BKN090 BKN120 02/M05 A3030 RMK
AO2 SLP263 T00221050





000
SAUS41 KLWX 210100
MTRRYT
METAR KRYT 210053Z AUTO 00000KT 10SM SCT100 M02/M06 A3023 RMK AO2
SLP255 T10171061 $





000
SAUS41 KLWX 210059
MTRNAK
METAR KNAK 210054Z AUTO 00000KT 10SM OVC090 02/M04 A3030 RMK AO2
SLP263 T00221039





000
SAUS41 KLWX 210059 COR
MTRDMH
METAR KDMH 210054Z AUTO 02/M05 A3030 RMK AO1 SLP258 T00221050





000
SAUS41 KLWX 210000
MTRRYT
METAR KRYT 202353Z AUTO 00000KT 10SM OVC120 M01/M06 A3024 RMK AO2
SLP260 T10061061 10011 21006 53010 $





000
SAUS41 KLWX 202359
MTRNAK
METAR KNAK 202354Z AUTO 00000KT 10SM OVC100 02/M04 A3031 RMK AO2
SLP265 T00171044 10039 20011 53010





000
SAUS41 KLWX 202359 COR
MTRDMH
METAR KDMH 202354Z AUTO 02/M06 A3031 RMK AO1 SLP262 T00221056 10039
20022 53015





000
SAUS41 KLWX 202300
MTRRYT
METAR KRYT 202253Z AUTO 00000KT 10SM OVC110 M01/M07 A3023 RMK AO2
SLP255 T10061067 $





000
SAUS41 KLWX 202259
MTRNAK
METAR KNAK 202254Z AUTO 00000KT 10SM CLR 01/M05 A3029 RMK AO2 SLP259
T00111050





000
SAUS41 KLWX 202259 COR
MTRDMH
METAR KDMH 202254Z AUTO 02/M06 A3027 RMK AO1 SLP251 T00221056





000
SAUS41 KLWX 202200
MTRRYT
METAR KRYT 202153Z AUTO 00000KT 10SM OVC120 00/M07 A3022 RMK AO2
SLP251 T00001067 $





000
SAUS41 KLWX 202159
MTRNAK
METAR KNAK 202154Z AUTO 08003KT 10SM SCT120 02/M05 A3028 RMK AO2
SLP256 T00171050





000
SAUS41 KLWX 202159 COR
MTRDMH
METAR KDMH 202154Z AUTO 03/M06 A3026 RMK AO1 SLP246 T00281061





000
SAUS41 KLWX 202100
MTRRYT
METAR KRYT 202053Z AUTO 00000KT 10SM OVC110 01/M07 A3021 RMK AO2
SLP248 T00061067 55001 $





000
SAUS41 KLWX 202059
MTRNAK
METAR KNAK 202054Z AUTO 06005KT 10SM SCT120 02/M05 A3028 RMK AO2
SLP255 T00221050 53001





000
SAUS41 KLWX 202059 COR
MTRDMH
METAR KDMH 202054Z AUTO 03/M06 A3026 RMK AO1 SLP247 T00331061 55014





000
SAUS41 KLWX 202000
MTRRYT
METAR KRYT 201953Z AUTO 00000KT 10SM CLR 01/M08 A3020 RMK AO2 SLP243
T00061078 $





000
SAUS41 KLWX 201959
MTRNAK
METAR KNAK 201954Z AUTO 10006KT 10SM CLR 02/M04 A3027 RMK AO2 SLP250
T00221044





000
SAUS41 KLWX 201959 COR
MTRDMH
METAR KDMH 201954Z AUTO 03/M06 A3026 RMK AO1 SLP246 T00281061





000
SAUS41 KLWX 201900
MTRRYT
METAR KRYT 201853Z AUTO 29003KT 10SM CLR 01/M07 A3020 RMK AO2 SLP245
T00061067 $





000
SAUS41 KLWX 201859
MTRNAK
METAR KNAK 201854Z AUTO 35003KT 10SM CLR 03/M06 A3027 RMK AO2 SLP251
T00281056





000
SAUS41 KLWX 201859 COR
MTRDMH
METAR KDMH 201854Z AUTO 03/M06 A3027 RMK AO1 SLP250 T00331061





000
SAUS41 KLWX 201801 COR
MTRDMH
METAR KDMH 201754Z AUTO 03/M06 A3030 RMK AO1 SLP261 T00281061 10028
21011 56010





000
SAUS41 KLWX 201800
MTRRYT
METAR KRYT 201753Z AUTO 00000KT 10SM CLR 00/M07 A3022 RMK AO2 SLP250
T00001072 10000 21044 58015 $





000
SAUS41 KLWX 201800 COR
MTRDMH
METAR KDMH 201754Z AUTO 03/M06 A3030 RMK AO1 SLP261 T00281061 10028
21011 56010





000
SAUS41 KLWX 201759
MTRNAK
METAR KNAK 201754Z AUTO 00000KT 10SM CLR 03/M05 A3028 RMK AO2 SLP254
T00331050 10033 21011 58020





000
SAUS41 KLWX 201759 COR
MTRDMH
METAR KDMH 201754Z AUTO 03/M06 A3030 RMK AO1 SLP261 T00281061 10028
21011 56010





000
SAUS41 KLWX 201702 COR
MTRDMH
METAR KDMH 201654Z AUTO 02/M06 A3031 RMK AO1 SLP263 T00171061





000
SAUS41 KLWX 201700
MTRRYT
METAR KRYT 201653Z AUTO 00000KT 10SM CLR M01/M07 A3023 RMK AO2
SLP255 T10111072 $





000
SAUS41 KLWX 201659
MTRNAK
METAR KNAK 201654Z AUTO 36004KT 10SM CLR 02/M06 A3030 RMK AO2 SLP262
T00171056





000
SAUS41 KLWX 201600
MTRRYT
METAR KRYT 201553Z AUTO 00000KT 10SM CLR M01/M07 A3026 RMK AO2
SLP263 T10111072 $





000
SAUS41 KLWX 201559 COR
MTRDMH
METAR KDMH 201554Z AUTO 01/M06 A3033 RMK AO1 SLP269 T00111061





000
SAUS41 KLWX 201559
MTRNAK
METAR KNAK 201554Z AUTO 30004KT 10SM CLR 01/M05 A3032 RMK AO2 SLP270
T00111050





000
SAUS41 KLWX 201500
MTRRYT
METAR KRYT 201453Z AUTO 00000KT 10SM CLR M02/M08 A3026 RMK AO2
SLP266 T10221078 53005 $





000
SAUS41 KLWX 201459 COR
MTRDMH
METAR KDMH 201454Z AUTO 01/M07 A3033 RMK AO1 SLP272 T00061067 52014





000
SAUS41 KLWX 201459
MTRNAK
METAR KNAK 201454Z AUTO 31005KT 10SM CLR 01/M05 A3034 RMK AO2 SLP274
T00061050 51013





000
SAUS41 KLWX 201400
MTRRYT
METAR KRYT 201353Z AUTO 00000KT 10SM CLR M03/M07 A3025 RMK AO2
SLP263 T10331072 $





000
SAUS41 KLWX 201400 COR
MTRDMH
METAR KDMH 201354Z AUTO 00/M07 A3033 RMK AO1 SLP269 T00001067





000
SAUS41 KLWX 201359 COR
MTRDMH
METAR KDMH 201354Z AUTO 00/M07 A3033 RMK AO1 SLP269 T00001067





000
SAUS41 KLWX 201359
MTRNAK
METAR KNAK 201354Z AUTO 33007KT 10SM CLR 00/M05 A3033 RMK AO2 SLP271
T00001050





000
SAUS41 KLWX 201300
MTRRYT
METAR KRYT 201253Z AUTO 00000KT 10SM CLR M03/M08 A3024 RMK AO2
SLP260 T10331083 $





000
SAUS41 KLWX 201259
MTRNAK
METAR KNAK 201254Z AUTO 33007KT 10SM CLR 00/M05 A3031 RMK AO2 SLP265
T00001050





000
SAUS41 KLWX 201259 COR
MTRDMH
METAR KDMH 201254Z AUTO M01/M07 A3030 RMK AO1 SLP260 T10061067





000
SAUS41 KLWX 201200
MTRRYT
METAR KRYT 201153Z AUTO 00000KT 10SM CLR M04/M08 A3024 RMK AO2
SLP261 T10441083 11022 21050 53015 $





000
SAUS41 KLWX 201159
MTRNAK
METAR KNAK 201154Z AUTO 30004KT 10SM CLR M01/M06 A3030 RMK AO2
SLP261 T10111061 10011 21017 53016





000
SAUS41 KLWX 201159 COR
MTRDMH
METAR KDMH 201154Z AUTO M01/M07 A3029 RMK AO1 SLP258 T10061072 10006
21011 53014





000
SAUS41 KLWX 201100
MTRRYT
METAR KRYT 201053Z AUTO 00000KT 10SM CLR M04/M08 A3021 RMK AO2
SLP248 T10391083 $





000
SAUS41 KLWX 201059
MTRNAK
METAR KNAK 201054Z AUTO 32005KT 10SM CLR M01/M05 A3027 RMK AO2
SLP250 T10061050





000
SAUS41 KLWX 201059 COR
MTRDMH
METAR KDMH 201054Z AUTO M01/M07 A3026 RMK AO1 SLP246 T10061072





000
SAUS41 KLWX 201000
MTRRYT
METAR KRYT 200953Z AUTO 00000KT 10SM CLR M03/M08 A3020 RMK AO2
SLP244 T10281083 $





000
SAUS41 KLWX 200959
MTRNAK
METAR KNAK 200954Z AUTO VRB04KT 10SM CLR M01/M07 A3026 RMK AO2
SLP247 T10111067





000
SAUS41 KLWX 200959 COR
MTRDMH
METAR KDMH 200954Z AUTO 00/M07 A3026 RMK AO1 SLP245 T00001072





000
SAUS41 KLWX 200900
MTRRYT
METAR KRYT 200853Z AUTO 00000KT 10SM CLR M03/M08 A3020 RMK AO2
SLP243 T10281083 50002 $





000
SAUS41 KLWX 200859
MTRNAK
METAR KNAK 200854Z AUTO 31005KT 10SM CLR 00/M06 A3025 RMK AO2 SLP245
T00001056 50007





000
SAUS41 KLWX 200859 COR
MTRDMH
METAR KDMH 200854Z AUTO 00/M07 A3025 RMK AO1 SLP244 T00001067 53006





000
SAUS41 KLWX 200800
MTRRYT
METAR KRYT 200753Z AUTO 00000KT 10SM CLR M03/M08 A3021 RMK AO2
SLP245 T10281083 $





000
SAUS41 KLWX 200800
MTRRYT
METAR KRYT 200753Z AUTO 00000KT 10SM CLR M03/M08 A3021 RMK AO2
SLP245 T10281083 $





000
SAUS41 KLWX 200759
MTRNAK
METAR KNAK 200754Z AUTO 29004KT 10SM CLR M01/M06 A3026 RMK AO2
SLP249 T10061061





000
SAUS41 KLWX 200759
MTRNAK
METAR KNAK 200754Z AUTO 29004KT 10SM CLR M01/M06 A3026 RMK AO2
SLP249 T10061061





000
SAUS41 KLWX 200759 COR
MTRDMH
METAR KDMH 200754Z AUTO 00/M07 A3025 RMK AO1 SLP243 T00001067





000
SAUS41 KLWX 200759 COR
MTRDMH
METAR KDMH 200754Z AUTO 00/M07 A3025 RMK AO1 SLP243 T00001067





000
SAUS41 KLWX 200700
MTRRYT
METAR KRYT 200653Z AUTO 00000KT 10SM CLR M03/M08 A3019 RMK AO2
SLP241 T10281078 $





000
SAUS41 KLWX 200659
MTRNAK
METAR KNAK 200654Z AUTO 29005KT 10SM CLR 00/M06 A3024 RMK AO2 SLP243
T00001061





000
SAUS41 KLWX 200659 COR
MTRDMH
METAR KDMH 200654Z AUTO 00/M07 A3022 RMK AO1 SLP234 T00001067





000
SAUS41 KLWX 200601 COR
MTRDMH
METAR KDMH 200554Z AUTO 00/M06 A3023 RMK AO1 SLP238 T00001061 10028
20000 50000





000
SAUS41 KLWX 200600
MTRRYT
METAR KRYT 200553Z AUTO 33005KT 10SM CLR M02/M08 A3019 RMK AO2
SLP240 T10221078 10000 21022 57002 $





000
SAUS41 KLWX 200559
MTRNAK
METAR KNAK 200554Z AUTO 30005KT 10SM CLR 01/M05 A3023 RMK AO2 SLP238
T00061050 10028 20006 58006





000
SAUS41 KLWX 200500
MTRRYT
METAR KRYT 200453Z AUTO VRB03KT 10SM CLR M02/M08 A3019 RMK AO2
SLP240 T10171078 400331022 $





000
SAUS41 KLWX 200459
MTRNAK
METAR KNAK 200454Z AUTO 30006KT 10SM CLR 01/M05 A3024 RMK AO2 SLP242
T00111050 400500006





000
SAUS41 KLWX 200459 COR
MTRDMH
METAR KDMH 200454Z AUTO 01/M06 A3024 RMK AO1 SLP240 T00061061
400440006





000
SAUS41 KLWX 200400
MTRRYT
METAR KRYT 200353Z AUTO 00000KT 10SM CLR M02/M07 A3020 RMK AO2
SLP241 T10171072 $





000
SAUS41 KLWX 200400
MTRRYT
METAR KRYT 200353Z AUTO 00000KT 10SM CLR M02/M07 A3020 RMK AO2
SLP241 T10171072 $





000
SAUS41 KLWX 200359
MTRNAK
METAR KNAK 200354Z AUTO 30005KT 10SM CLR 01/M05 A3025 RMK AO2 SLP244
T00111050





000
SAUS41 KLWX 200359 COR
MTRDMH
METAR KDMH 200354Z AUTO 01/M06 A3024 RMK AO1 SLP241 T00061061





000
SAUS41 KLWX 200359 COR
MTRDMH
METAR KDMH 200354Z AUTO 01/M06 A3024 RMK AO1 SLP241 T00061061





000
SAUS41 KLWX 200359
MTRNAK
METAR KNAK 200354Z AUTO 30005KT 10SM CLR 01/M05 A3025 RMK AO2 SLP244
T00111050





000
SAUS41 KLWX 200300
MTRRYT
METAR KRYT 200253Z AUTO 00000KT 10SM CLR M01/M07 A3020 RMK AO2
SLP242 T10111072 51016 $





000
SAUS41 KLWX 200259
MTRNAK
METAR KNAK 200254Z AUTO 29005KT 10SM CLR 02/M05 A3025 RMK AO2 SLP244
T00171050 51018





000
SAUS41 KLWX 200259 COR
MTRDMH
METAR KDMH 200254Z AUTO 02/M06 A3023 RMK AO1 SLP238 T00171061 51019





000
SAUS41 KLWX 200200
MTRRYT
METAR KRYT 200153Z AUTO 00000KT 10SM CLR M01/M07 A3019 RMK AO2
SLP239 T10111067 $





000
SAUS41 KLWX 200159 COR
MTRDMH
METAR KDMH 200154Z AUTO 02/M06 A3022 RMK AO1 SLP233 T00171056





000
SAUS41 KLWX 200159
MTRNAK
METAR KNAK 200154Z AUTO 30007KT 10SM CLR 02/M05 A3023 RMK AO2 SLP238
T00221050





000
SAUS41 KLWX 200159
MTRNAK
METAR KNAK 200154Z AUTO 30007KT 10SM CLR 02/M05 A3023 RMK AO2 SLP238
T00221050





000
SAUS41 KLWX 200159 COR
MTRDMH
METAR KDMH 200154Z AUTO 02/M06 A3022 RMK AO1 SLP233 T00171056





000
SAUS41 KLWX 200100
MTRRYT
METAR KRYT 200053Z AUTO 00000KT 10SM CLR M01/M07 A3018 RMK AO2
SLP238 T10111067 $





000
SAUS41 KLWX 200059
MTRNAK
METAR KNAK 200054Z AUTO 30007KT 10SM CLR 03/M04 A3021 RMK AO2 SLP232
T00281044





000
SAUS41 KLWX 200059 COR
MTRDMH
METAR KDMH 200054Z AUTO 02/M06 A3021 RMK AO1 SLP231 T00221056





000
SAUS41 KLWX 200000
MTRRYT
METAR KRYT 192353Z AUTO 00000KT 10SM CLR 00/M07 A3015 RMK AO2 SLP225
T00001067 10033 21006 51011 $





000
SAUS41 KLWX 192359
MTRNAK
METAR KNAK 192354Z AUTO 29005KT 10SM CLR 03/M05 A3019 RMK AO2 SLP226
T00281050 10050 20028 53016





000
SAUS41 KLWX 192359 COR
MTRDMH
METAR KDMH 192354Z AUTO 03/M06 A3018 RMK AO1 SLP219 T00281056 10044
20028 51015





000
SAUS41 KLWX 192300
MTRRYT
METAR KRYT 192253Z AUTO 00000KT 10SM CLR 00/M07 A3014 RMK AO2 SLP222
T00001067 $





000
SAUS41 KLWX 192259 COR
MTRDMH
METAR KDMH 192254Z AUTO 03/M05 A3017 RMK AO1 SLP215 T00331050





000
SAUS41 KLWX 192259
MTRNAK
METAR KNAK 192254Z AUTO 28005KT 10SM CLR 03/M05 A3017 RMK AO2 SLP218
T00331050





000
SAUS41 KLWX 192200
MTRRYT
METAR KRYT 192153Z AUTO 29007KT 250V350 10SM CLR 01/M06 A3013 RMK
AO2 SLP220 T00061061 $





000
SAUS41 KLWX 192159
MTRNAK
METAR KNAK 192154Z AUTO 29005KT 10SM CLR 04/M04 A3016 RMK AO2 SLP216
T00391044





000
SAUS41 KLWX 192159 COR
MTRDMH
METAR KDMH 192154Z AUTO 04/M06 A3015 RMK AO1 SLP210 T00441056





000
SAUS41 KLWX 192100
MTRRYT
METAR KRYT 192053Z AUTO VRB04KT 10SM FEW033 02/M06 A3012 RMK AO2
SLP213 T00171061 53012 $





000
SAUS41 KLWX 192059
MTRNAK
METAR KNAK 192054Z AUTO 31008KT 10SM CLR 04/M04 A3014 RMK AO2 SLP209
T00441044 53007





000
SAUS41 KLWX 192059 COR
MTRDMH
METAR KDMH 192054Z AUTO 04/M06 A3013 RMK AO1 SLP204 T00441056 53001





000
SAUS41 KLWX 192000
MTRRYT
METAR KRYT 191953Z AUTO 31006KT 10SM FEW032 02/M06 A3009 RMK AO2
SLP205 T00221061 $





000
SAUS41 KLWX 192000
MTRRYT
METAR KRYT 191953Z AUTO 31006KT 10SM FEW032 02/M06 A3009 RMK AO2
SLP205 T00221061 $





000
SAUS41 KLWX 191959
MTRNAK
METAR KNAK 191954Z AUTO 30009KT 10SM BKN042 04/M04 A3013 RMK AO2
SLP206 T00441044





000
SAUS41 KLWX 191959 COR
MTRDMH
METAR KDMH 191954Z AUTO 04/M06 A3012 RMK AO1 SLP198 T00441056





000
SAUS41 KLWX 191959 COR
MTRDMH
METAR KDMH 191954Z AUTO 04/M06 A3012 RMK AO1 SLP198 T00441056





000
SAUS41 KLWX 191959
MTRNAK
METAR KNAK 191954Z AUTO 30009KT 10SM BKN042 04/M04 A3013 RMK AO2
SLP206 T00441044





000
SAUS41 KLWX 191900
MTRRYT
METAR KRYT 191853Z AUTO 28007G18KT 260V340 10SM OVC032 03/M05 A3008
RMK AO2 SLP199 T00331050 $





000
SAUS41 KLWX 191859
MTRNAK
METAR KNAK 191854Z AUTO 31010KT 10SM OVC039 04/M04 A3012 RMK AO2
SLP201 T00391044





000
SAUS41 KLWX 191858
MTRDMH
METAR KDMH 191854Z AUTO 04/M06 A3013 RMK AO1 SLP201 T00391056





000
SAUS41 KLWX 191800
MTRRYT
METAR KRYT 191753Z AUTO VRB06KT 10SM BKN030 02/M06 A3008 RMK AO2
SLP200 T00221056 10028 20000 58007 $





000
SAUS41 KLWX 191759 COR
MTRDMH
METAR KDMH 191754Z AUTO 04/M05 A3013 RMK AO1 SLP202 T00391050 10039
20022 58011





000
SAUS41 KLWX 191759
MTRNAK
METAR KNAK 191754Z AUTO 31010KT 10SM OVC037 03/M04 A3012 RMK AO2
SLP203 T00331039 10033 20017 58013 $





000
SAUS41 KLWX 191724
MTRRYT
SPECI KRYT 191718Z AUTO VRB05G15KT 10SM OVC030 02/M06 A3008 RMK AO2
$





000
SAUS41 KLWX 191700
MTRNAK
METAR KNAK 191654Z AUTO 30010KT 260V320 10SM OVC037 03/M04 A3014 RMK
AO2 SLP208 T00331044 $





000
SAUS41 KLWX 191700
MTRRYT
METAR KRYT 191653Z AUTO 29007KT 250V330 10SM BKN028 02/M06 A3009 RMK
AO2 SLP204 T00171056 $





000
SAUS41 KLWX 191659 COR
MTRDMH
METAR KDMH 191654Z AUTO 03/M05 A3014 RMK AO1 SLP207 T00331050





000
SAUS41 KLWX 191600
MTRRYT
METAR KRYT 191553Z AUTO VRB06G15KT 10SM OVC026 01/M05 A3010 RMK AO2
SLP207 T00111050 $





000
SAUS41 KLWX 191559
MTRNAK
METAR KNAK 191554Z AUTO 31008KT 10SM OVC038 03/M04 A3016 RMK AO2
SLP215 T00331039 $





000
SAUS41 KLWX 191558 COR
MTRDMH
METAR KDMH 191554Z AUTO 03/M05 A3015 RMK AO1 SLP209 T00281050





000
SAUS41 KLWX 191500
MTRNAK
METAR KNAK 191454Z AUTO 31009KT 10SM OVC036 03/M04 A3016 RMK AO2
SLP216 T00281039 51012 $





000
SAUS41 KLWX 191500
MTRRYT
METAR KRYT 191453Z AUTO VRB03KT 10SM OVC026 01/M05 A3010 RMK AO2
SLP209 T00061050 50012 $





000
SAUS41 KLWX 191459 COR
MTRDMH
METAR KDMH 191454Z AUTO 03/M05 A3016 RMK AO1 SLP213 T00281050 51015





000
SAUS41 KLWX 191400
MTRRYT
METAR KRYT 191353Z AUTO 35004KT 10SM OVC026 01/M06 A3011 RMK AO2
SLP211 T00061056 $





000
SAUS41 KLWX 191359 COR
MTRDMH
METAR KDMH 191354Z AUTO 02/M05 A3015 RMK AO1 SLP208 T00221050





000
SAUS41 KLWX 191359
MTRNAK
METAR KNAK 191354Z AUTO 29005KT 10SM OVC035 02/M04 A3015 RMK AO2
SLP213 T00221044 $





000
SAUS41 KLWX 191300
MTRRYT
METAR KRYT 191253Z AUTO VRB05KT 10SM OVC026 00/M06 A3009 RMK AO2
SLP203 T00001056 $





000
SAUS41 KLWX 191259 COR
MTRDMH
METAR KDMH 191254Z AUTO 02/M05 A3014 RMK AO1 SLP205 T00221050





000
SAUS41 KLWX 191255
MTRNAK
METAR KNAK 191254Z AUTO 30005KT 10SM OVC036 02/M04 A3014 RMK AO2
SLP208 T00221044 $





000
SAUS41 KLWX 191200
MTRRYT
METAR KRYT 191153Z AUTO VRB04KT 10SM OVC024 00/M06 A3006 RMK AO2
SLP196 T00001056 10000 21006 53005 $





000
SAUS41 KLWX 191159 COR
MTRDMH
METAR KDMH 191154Z AUTO 02/M05 A3012 RMK AO1 SLP198 T00221050 10022
20017 53005





000
SAUS41 KLWX 191155
MTRNAK
METAR KNAK 191154Z AUTO 29004KT 10SM OVC036 02/M04 A3013 RMK AO2
SLP204 T00221044 10022 20017 53009 $





000
SAUS41 KLWX 191100
MTRRYT
METAR KRYT 191053Z AUTO 31007KT 10SM OVC024 00/M06 A3006 RMK AO2
SLP193 T00001056 $





000
SAUS41 KLWX 191059 COR
MTRDMH
METAR KDMH 191054Z AUTO 02/M05 A3011 RMK AO1 SLP194 T00221050





000
SAUS41 KLWX 191055
MTRNAK
METAR KNAK 191054Z AUTO 30006KT 10SM OVC037 02/M04 A3011 RMK AO2
SLP196 T00171044 $





000
SAUS41 KLWX 191000
MTRRYT
METAR KRYT 190953Z AUTO 35008KT 10SM OVC024 00/M06 A3004 RMK AO2
SLP189 T00001056 $





000
SAUS41 KLWX 191000
MTRRYT
METAR KRYT 190953Z AUTO 35008KT 10SM OVC024 00/M06 A3004 RMK AO2
SLP189 T00001056 $





000
SAUS41 KLWX 190959 COR
MTRDMH
METAR KDMH 190954Z AUTO 02/M05 A3009 RMK AO1 SLP190 T00171050





000
SAUS41 KLWX 190959 COR
MTRDMH
METAR KDMH 190954Z AUTO 02/M05 A3009 RMK AO1 SLP190 T00171050





000
SAUS41 KLWX 190955
MTRNAK
METAR KNAK 190954Z AUTO 29005KT 10SM OVC037 02/M05 A3010 RMK AO2
SLP195 T00171050 $





000
SAUS41 KLWX 190955
MTRNAK
METAR KNAK 190954Z AUTO 29005KT 10SM OVC037 02/M05 A3010 RMK AO2
SLP195 T00171050 $





000
SAUS41 KLWX 190900
MTRRYT
METAR KRYT 190853Z AUTO 00000KT 10SM OVC024 00/M06 A3005 RMK AO2
SLP191 T00001056 50003 $





000
SAUS41 KLWX 190859 COR
MTRDMH
METAR KDMH 190854Z AUTO 02/M05 A3010 RMK AO1 SLP193 T00171050 50005





000
SAUS41 KLWX 190855
MTRNAK
METAR KNAK 190854Z AUTO 29007KT 10SM BKN038 OVC100 02/M05 A3010 RMK
AO2 SLP195 T00171050 50002 $





000
SAUS41 KLWX 190802 COR
MTRDMH
METAR KDMH 190754Z AUTO 02/M05 A3010 RMK AO1 SLP193 T00171050





000
SAUS41 KLWX 190800
MTRRYT
METAR KRYT 190753Z AUTO VRB04KT 10SM OVC024 M01/M06 A3005 RMK AO2
SLP192 T10061056 $





000
SAUS41 KLWX 190800 COR
MTRDMH
METAR KDMH 190754Z AUTO 02/M05 A3010 RMK AO1 SLP193 T00171050





000
SAUS41 KLWX 190759 COR
MTRDMH
METAR KDMH 190754Z AUTO 02/M05 A3010 RMK AO1 SLP193 T00171050





000
SAUS41 KLWX 190756
MTRNAK
METAR KNAK 190754Z AUTO 28006KT 10SM SCT038 OVC110 02/M05 A3011 RMK
AO2 SLP197 T00171050 $





000
SAUS41 KLWX 190700
MTRRYT
METAR KRYT 190653Z AUTO 00000KT 10SM OVC024 M01/M06 A3005 RMK AO2
SLP190 T10061056 $





000
SAUS41 KLWX 190659 COR
MTRDMH
METAR KDMH 190654Z AUTO 02/M05 A3009 RMK AO1 SLP190 T00221050





000
SAUS41 KLWX 190655
MTRNAK
METAR KNAK 190654Z AUTO 28005KT 10SM OVC110 02/M05 A3010 RMK AO2
SLP193 T00171050 $





000
SAUS41 KLWX 190600
MTRRYT
METAR KRYT 190553Z AUTO VRB04KT 10SM OVC024 M01/M06 A3004 RMK AO2
SLP188 T10061061 10011 21006 58002 $





000
SAUS41 KLWX 190559 COR
MTRDMH
METAR KDMH 190554Z AUTO 02/M05 A3009 RMK AO1 SLP188 T00221050 10022
20017 58003





000
SAUS41 KLWX 190555
MTRNAK
METAR KNAK 190554Z AUTO 28006KT 10SM BKN038 OVC120 02/M05 A3010 RMK
AO2 SLP193 T00171050 10028 20017 58002 $





000
SAUS41 KLWX 190500
MTRRYT
METAR KRYT 190453Z AUTO 00000KT 10SM OVC024 00/M06 A3005 RMK AO2
SLP191 T00001061 400221011 $





000
SAUS41 KLWX 190459 COR
MTRDMH
METAR KDMH 190454Z AUTO 02/M05 A3010 RMK AO1 SLP192 T00221050
400330006





000
SAUS41 KLWX 190455
MTRNAK
METAR KNAK 190454Z AUTO 30005KT 10SM FEW110 02/M04 A3010 RMK AO2
SLP194 T00221044 400440017 $





000
SAUS41 KLWX 190400
MTRRYT
METAR KRYT 190353Z AUTO 00000KT 10SM OVC026 00/M06 A3006 RMK AO2
SLP193 T00001056 $





000
SAUS41 KLWX 190400
MTRRYT
METAR KRYT 190353Z AUTO 00000KT 10SM OVC026 00/M06 A3006 RMK AO2
SLP193 T00001056 $





000
SAUS41 KLWX 190359 COR
MTRDMH
METAR KDMH 190354Z AUTO 02/M05 A3010 RMK AO1 SLP192 T00171050





000
SAUS41 KLWX 190359 COR
MTRDMH
METAR KDMH 190354Z AUTO 02/M05 A3010 RMK AO1 SLP192 T00171050





000
SAUS41 KLWX 190355
MTRNAK
METAR KNAK 190354Z AUTO 29005KT 10SM BKN110 02/M04 A3010 RMK AO2
SLP195 T00221044 $





000
SAUS41 KLWX 190355
MTRNAK
METAR KNAK 190354Z AUTO 29005KT 10SM BKN110 02/M04 A3010 RMK AO2
SLP195 T00221044 $





000
SAUS41 KLWX 190300
MTRRYT
METAR KRYT 190253Z AUTO VRB03KT 10SM OVC026 00/M06 A3005 RMK AO2
SLP191 T00001056 58002 $





000
SAUS41 KLWX 190259 COR
MTRDMH
METAR KDMH 190254Z AUTO 02/M06 A3010 RMK AO1 SLP191 T00221056 58005





000
SAUS41 KLWX 190255
MTRNAK
METAR KNAK 190254Z AUTO 30006KT 10SM FEW080 BKN100 BKN120 02/M05
A3010 RMK AO2 SLP195 T00221050 58003 $





000
SAUS41 KLWX 190200
MTRRYT
METAR KRYT 190153Z AUTO 00000KT 10SM OVC028 00/M06 A3006 RMK AO2
SLP195 T00001061 $





000
SAUS41 KLWX 190200
MTRRYT
METAR KRYT 190153Z AUTO 00000KT 10SM OVC028 00/M06 A3006 RMK AO2
SLP195 T00001061 $





000
SAUS41 KLWX 190159 COR
MTRDMH
METAR KDMH 190154Z AUTO 02/M05 A3010 RMK AO1 SLP194 T00221050





000
SAUS41 KLWX 190159 COR
MTRDMH
METAR KDMH 190154Z AUTO 02/M05 A3010 RMK AO1 SLP194 T00221050





000
SAUS41 KLWX 190155
MTRNAK
METAR KNAK 190154Z AUTO 30004KT 10SM CLR 02/M04 A3011 RMK AO2 SLP198
T00221044 $





000
SAUS41 KLWX 190155
MTRNAK
METAR KNAK 190154Z AUTO 30004KT 10SM CLR 02/M04 A3011 RMK AO2 SLP198
T00221044 $





000
SAUS41 KLWX 190100
MTRRYT
METAR KRYT 190053Z AUTO 00000KT 10SM OVC028 00/M06 A3006 RMK AO2
SLP194 T00001061 $





000
SAUS41 KLWX 190059 COR
MTRDMH
METAR KDMH 190054Z AUTO 02/M05 A3012 RMK AO1 SLP199 T00221050





000
SAUS41 KLWX 190055
MTRNAK
METAR KNAK 190054Z AUTO 28006KT 10SM CLR 02/M05 A3012 RMK AO2 SLP200
T00221050 $





000
SAUS41 KLWX 190050
MTRRYT
SPECI KRYT 190043Z AUTO VRB03KT 10SM OVC028 01/M06 A3006 RMK AO2 $





000
SAUS41 KLWX 190000
MTRRYT
METAR KRYT 182353Z AUTO 00000KT 10SM OVC030 00/M06 A3005 RMK AO2
SLP193 T00001061 10022 20000 51004 $





000
SAUS41 KLWX 182359 COR
MTRDMH
METAR KDMH 182354Z AUTO 02/M06 A3011 RMK AO1 SLP196 T00221056 10033
20022 51013





000
SAUS41 KLWX 182355
MTRNAK
METAR KNAK 182354Z AUTO 29005KT 10SM OVC042 03/M05 A3011 RMK AO2
SLP198 T00281050 10044 20022 51008 $





000
SAUS41 KLWX 182300
MTRRYT
METAR KRYT 182253Z AUTO 00000KT 10SM CLR 00/M06 A3005 RMK AO2 SLP192
T00001061 $





000
SAUS41 KLWX 182259 COR
MTRDMH
METAR KDMH 182254Z AUTO 03/M06 A3010 RMK AO1 SLP194 T00281056





000
SAUS41 KLWX 182255
MTRNAK
METAR KNAK 182254Z AUTO 28005KT 10SM SCT044 03/M05 A3011 RMK AO2
SLP196 T00281050 $





000
SAUS41 KLWX 182200
MTRRYT
METAR KRYT 182153Z AUTO VRB04KT 10SM CLR 01/M06 A3005 RMK AO2 SLP190
T00061061 $





000
SAUS41 KLWX 182200
MTRRYT
METAR KRYT 182153Z AUTO VRB04KT 10SM CLR 01/M06 A3005 RMK AO2 SLP190
T00061061 $





000
SAUS41 KLWX 182159 COR
MTRDMH
METAR KDMH 182154Z AUTO 03/M06 A3008 RMK AO1 SLP186 T00281056





000
SAUS41 KLWX 182159 COR
MTRDMH
METAR KDMH 182154Z AUTO 03/M06 A3008 RMK AO1 SLP186 T00281056





000
SAUS41 KLWX 182155
MTRNAK
METAR KNAK 182154Z AUTO VRB03KT 10SM FEW043 03/M04 A3009 RMK AO2
SLP192 T00331044 $





000
SAUS41 KLWX 182100
MTRRYT
METAR KRYT 182053Z AUTO VRB05KT 10SM SCT030 01/M06 A3004 RMK AO2
SLP188 T00111061 56011 $





000
SAUS41 KLWX 182100
MTRDMH
METAR KDMH 182054Z AUTO 03/M06 A3007 RMK AO1 SLP183 T00281056 56012





000
SAUS41 KLWX 182055
MTRNAK
METAR KNAK 182054Z AUTO 32010KT 10SM FEW041 04/M04 A3009 RMK AO2
SLP189 T00391044 56006 $





000
SAUS41 KLWX 182000
MTRRYT
METAR KRYT 181953Z AUTO VRB06G15KT 10SM BKN030 02/M06 A3004 RMK AO2
SLP188 T00171061 $





000
SAUS41 KLWX 181959 COR
MTRDMH
METAR KDMH 181954Z AUTO 03/M06 A3008 RMK AO1 SLP186 T00331056





000
SAUS41 KLWX 181957
MTRNAK
METAR KNAK 181954Z AUTO 32013G18KT 10SM FEW041 04/M04 A3008 RMK AO2
SLP189 T00391044 $





000
SAUS41 KLWX 181900
MTRRYT
METAR KRYT 181853Z AUTO 26010G15KT 10SM OVC030 02/M06 A3005 RMK AO2
SLP190 T00171061 $





000
SAUS41 KLWX 181859 COR
MTRDMH
METAR KDMH 181854Z AUTO 03/M06 A3009 RMK AO1 SLP190 T00281061





000
SAUS41 KLWX 181855
MTRNAK
METAR KNAK 181854Z AUTO 32013G19KT 10SM SCT041 04/M04 A3009 RMK AO2
SLP190 T00391044 $





000
SAUS41 KLWX 181800
MTRRYT
METAR KRYT 181753Z AUTO 26008KT 10SM OVC028 01/M06 A3007 RMK AO2
SLP199 T00061056 10006 21011 58012 $





000
SAUS41 KLWX 181759 COR
MTRDMH
METAR KDMH 181754Z AUTO 03/M06 A3011 RMK AO1 SLP196 T00281061 10033
20006 58016





000
SAUS41 KLWX 181755
MTRNAK
METAR KNAK 181754Z AUTO 30010KT 270V340 10SM OVC042 04/M06 A3010 RMK
AO2 SLP196 T00391056 10039 20017 58021 $





000
SAUS41 KLWX 181749
MTRRYT
SPECI KRYT 181742Z AUTO 24009G16KT 210V280 10SM OVC028 00/M06 A3008
RMK AO2 $





000
SAUS41 KLWX 181706 COR
MTRRSP
METAR KRSP 181654Z AUTO 10SM OVC021 M02/M07 A3004 RMK AO2 SLP199
T10221067 $





000
SAUS41 KLWX 181700
MTRRYT
METAR KRYT 181653Z AUTO VRB05KT 10SM OVC030 00/M07 A3009 RMK AO2
SLP205 T00001067 $





000
SAUS41 KLWX 181659 COR
MTRDMH
METAR KDMH 181654Z AUTO 03/M07 A3014 RMK AO1 SLP207 T00281067





000
SAUS41 KLWX 181656
MTRNAK
METAR KNAK 181654Z AUTO 29009G21KT 10SM BKN042 03/M06 A3014 RMK AO2
SLP206 T00331061 $





000
SAUS41 KLWX 181606 COR
MTRRSP
METAR KRSP 181554Z AUTO 9SM BKN017 OVC024 M02/M07 A3006 RMK AO2
SLP205 T10221067 $





000
SAUS41 KLWX 181600
MTRRYT
METAR KRYT 181553Z AUTO VRB04KT 10SM OVC036 00/M06 A3011 RMK AO2
SLP210 T00001061 $





000
SAUS41 KLWX 181559 COR
MTRDMH
METAR KDMH 181554Z AUTO 02/M07 A3016 RMK AO1 SLP213 T00221072





000
SAUS41 KLWX 181556
MTRNAK
METAR KNAK 181554Z AUTO 30011KT 10SM BKN043 03/M06 A3016 RMK AO2
SLP214 T00331056 $





000
SAUS41 KLWX 181506 COR
MTRRSP
METAR KRSP 181454Z AUTO 7SM SCT020 OVC025 M03/M07 A3006 RMK AO2
SLP205 T10281072 51009 $





000
SAUS41 KLWX 181500
MTRRYT
METAR KRYT 181453Z AUTO VRB06KT 10SM OVC034 00/M07 A3011 RMK AO2
SLP210 T00001067 51015 $





000
SAUS41 KLWX 181459 COR
MTRDMH
METAR KDMH 181454Z AUTO 02/M07 A3016 RMK AO1 SLP212 T00221072 50014





000
SAUS41 KLWX 181455
MTRNAK
METAR KNAK 181454Z AUTO 28013G18KT 10SM CLR 03/M07 A3017 RMK AO2
SLP217 T00281067 51012 $





000
SAUS41 KLWX 181405 COR
MTRRSP
METAR KRSP 181354Z AUTO 10SM OVC021 M03/M08 A3005 RMK AO2 SLP201
T10281078 $





000
SAUS41 KLWX 181405 COR
MTRRSP
METAR KRSP 181354Z AUTO 10SM OVC021 M03/M08 A3005 RMK AO2 SLP201
T10281078 $





000
SAUS41 KLWX 181400
MTRRYT
METAR KRYT 181353Z AUTO VRB03KT 10SM OVC032 M01/M07 A3010 RMK AO2
SLP206 T10061072 $





000
SAUS41 KLWX 181400
MTRRYT
METAR KRYT 181353Z AUTO VRB03KT 10SM OVC032 M01/M07 A3010 RMK AO2
SLP206 T10061072 $





000
SAUS41 KLWX 181359 COR
MTRDMH
METAR KDMH 181354Z AUTO 02/M07 A3016 RMK AO1 SLP213 T00171072





000
SAUS41 KLWX 181359 COR
MTRDMH
METAR KDMH 181354Z AUTO 02/M07 A3016 RMK AO1 SLP213 T00171072





000
SAUS41 KLWX 181355
MTRNAK
METAR KNAK 181354Z AUTO 29006KT 10SM CLR 02/M08 A3016 RMK AO2 SLP214
T00221078 $





000
SAUS41 KLWX 181355
MTRNAK
METAR KNAK 181354Z AUTO 29006KT 10SM CLR 02/M08 A3016 RMK AO2 SLP214
T00221078 $





000
SAUS41 KLWX 181305 COR
MTRRSP
METAR KRSP 181254Z AUTO 10SM OVC023 M03/M08 A3004 RMK AO2 SLP200
T10331083 $





000
SAUS41 KLWX 181305 COR
MTRRSP
METAR KRSP 181254Z AUTO 10SM OVC023 M03/M08 A3004 RMK AO2 SLP200
T10331083 $





000
SAUS41 KLWX 181300
MTRRYT
METAR KRYT 181253Z AUTO VRB05KT 10SM OVC034 M01/M08 A3009 RMK AO2
SLP204 T10061078 $





000
SAUS41 KLWX 181300
MTRRYT
METAR KRYT 181253Z AUTO VRB05KT 10SM OVC034 M01/M08 A3009 RMK AO2
SLP204 T10061078 $





000
SAUS41 KLWX 181259 COR
MTRDMH
METAR KDMH 181254Z AUTO 01/M08 A3014 RMK AO1 SLP206 T00061078





000
SAUS41 KLWX 181259 COR
MTRDMH
METAR KDMH 181254Z AUTO 01/M08 A3014 RMK AO1 SLP206 T00061078





000
SAUS41 KLWX 181256
MTRNAK
METAR KNAK 181254Z AUTO 30009KT 10SM CLR 02/M07 A3014 RMK AO2 SLP209
T00171072 $





000
SAUS41 KLWX 181256
MTRNAK
METAR KNAK 181254Z AUTO 30009KT 10SM CLR 02/M07 A3014 RMK AO2 SLP209
T00171072 $





000
SAUS41 KLWX 181206 COR
MTRRSP
METAR KRSP 181154Z AUTO 10SM OVC025 M03/M08 A3003 RMK AO2 SLP195
T10331083 11017 21033 53012 $





    US Dept of Commerce
    National Oceanic and Atmospheric Administration
    National Weather Service
    1325 East West Highway
    Silver Spring, MD 20910
    Page Author: NWS Internet Services Team
Disclaimer
Information Quality
Credits
Glossary
Privacy Policy
Freedom of Information Act (FOIA)
About Us
Career Opportunities